sensor_id;sensor_type;location;lat;lon;timestamp;temperature;humidity
38860;DHT22;24609;48.316;16.174;2023-08-01T00:00:01;18.10;99.90
38860;DHT22;24609;48.316;16.174;2023-08-01T00:02:26;18.00;99.90
38860;DHT22;24609;48.316;16.174;2023-08-01T00:04:52;17.90;99.90
38860;DHT22;24609;48.316;16.174;2023-08-01T00:07:18;17.90;99.90
38860;DHT22;24609;48.316;16.174;2023-08-01T00:09:43;17.90;99.90
38860;DHT22;24609;48.316;16.174;2023-08-01T00:12:09;17.80;99.90
38860;DHT22;24609;48.316;16.174;2023-08-01T00:14:36;17.70;99.90
38860;DHT22;24609;48.316;16.174;2023-08-01T00:17:01;17.70;41.60
38860;DHT22;24609;48.316;16.174;2023-08-01T00:19:28;17.70;1.00
38860;DHT22;24609;48.316;16.174;2023-08-01T00:21:54;17.70;1.00
38860;DHT22;24609;48.316;16.174;2023-08-01T00:24:20;17.70;1.00
38860;DHT22;24609;48.316;16.174;2023-08-01T00:26:45;17.70;3.50
38860;DHT22;24609;48.316;16.174;2023-08-01T00:29:12;17.70;1.00
38860;DHT22;24609;48.316;16.174;2023-08-01T00:31:37;17.70;1.00
38860;DHT22;24609;48.316;16.174;2023-08-01T00:34:03;17.80;1.00
38860;DHT22;24609;48.316;16.174;2023-08-01T00:36:29;17.80;1.00
38860;DHT22;24609;48.316;16.174;2023-08-01T00:38:54;17.80;1.00
38860;DHT22;24609;48.316;16.174;2023-08-01T00:41:20;17.70;99.90
38860;DHT22;24609;48.316;16.174;2023-08-01T00:43:45;17.50;99.90
38860;DHT22;24609;48.316;16.174;2023-08-01T00:46:11;17.50;99.90
38860;DHT22;24609;48.316;16.174;2023-08-01T00:48:37;17.50;99.90
38860;DHT22;24609;48.316;16.174;2023-08-01T00:51:07;17.50;99.90
38860;DHT22;24609;48.316;16.174;2023-08-01T00:53:34;17.50;99.90
38860;DHT22;24609;48.316;16.174;2023-08-01T00:56:00;17.50;99.90
38860;DHT22;24609;48.316;16.174;2023-08-01T00:58:26;17.60;99.90
38860;DHT22;24609;48.316;16.174;2023-08-01T01:00:52;17.60;99.90
38860;DHT22;24609;48.316;16.174;2023-08-01T01:03:18;17.60;99.90
38860;DHT22;24609;48.316;16.174;2023-08-01T01:05:57;17.50;99.90
38860;DHT22;24609;48.316;16.174;2023-08-01T01:08:26;17.60;99.90
38860;DHT22;24609;48.316;16.174;2023-08-01T01:10:51;17.50;99.90
38860;DHT22;24609;48.316;16.174;2023-08-01T01:13:17;17.50;99.90
38860;DHT22;24609;48.316;16.174;2023-08-01T01:15:43;17.40;99.90
38860;DHT22;24609;48.316;16.174;2023-08-01T01:18:08;17.40;67.70
38860;DHT22;24609;48.316;16.174;2023-08-01T01:20:35;17.40;91.70
38860;DHT22;24609;48.316;16.174;2023-08-01T01:23:03;17.50;99.90
38860;DHT22;24609;48.316;16.174;2023-08-01T01:25:30;17.50;90.20
38860;DHT22;24609;48.316;16.174;2023-08-01T01:27:57;17.50;99.90
38860;DHT22;24609;48.316;16.174;2023-08-01T01:30:23;17.50;99.90
38860;DHT22;24609;48.316;16.174;2023-08-01T01:32:50;17.50;99.90
38860;DHT22;24609;48.316;16.174;2023-08-01T01:35:16;17.50;99.90
38860;DHT22;24609;48.316;16.174;2023-08-01T01:37:42;17.60;99.90
38860;DHT22;24609;48.316;16.174;2023-08-01T01:40:08;17.50;99.90
38860;DHT22;24609;48.316;16.174;2023-08-01T01:42:34;17.50;99.90
38860;DHT22;24609;48.316;16.174;2023-08-01T01:45:00;17.50;99.90
38860;DHT22;24609;48.316;16.174;2023-08-01T01:47:26;17.50;99.90
38860;DHT22;24609;48.316;16.174;2023-08-01T01:49:51;17.60;99.90
38860;DHT22;24609;48.316;16.174;2023-08-01T01:52:17;17.60;99.90
38860;DHT22;24609;48.316;16.174;2023-08-01T01:54:43;17.60;99.90
38860;DHT22;24609;48.316;16.174;2023-08-01T01:57:08;17.60;99.90
38860;DHT22;24609;48.316;16.174;2023-08-01T01:59:34;17.70;99.90
38860;DHT22;24609;48.316;16.174;2023-08-01T02:01:59;17.70;99.90
38860;DHT22;24609;48.316;16.174;2023-08-01T02:04:25;17.70;99.90
38860;DHT22;24609;48.316;16.174;2023-08-01T02:06:51;17.70;99.90
38860;DHT22;24609;48.316;16.174;2023-08-01T02:09:18;17.80;99.90
38860;DHT22;24609;48.316;16.174;2023-08-01T02:11:44;17.80;99.90
38860;DHT22;24609;48.316;16.174;2023-08-01T02:14:10;17.90;99.90
38860;DHT22;24609;48.316;16.174;2023-08-01T02:16:35;17.90;99.90
38860;DHT22;24609;48.316;16.174;2023-08-01T02:19:01;17.90;99.90
38860;DHT22;24609;48.316;16.174;2023-08-01T02:21:27;17.80;99.90
38860;DHT22;24609;48.316;16.174;2023-08-01T02:23:52;17.70;99.90
38860;DHT22;24609;48.316;16.174;2023-08-01T02:26:18;17.70;99.90
38860;DHT22;24609;48.316;16.174;2023-08-01T02:28:44;17.70;99.90
38860;DHT22;24609;48.316;16.174;2023-08-01T02:31:09;17.70;99.90
38860;DHT22;24609;48.316;16.174;2023-08-01T02:33:35;17.70;99.90
38860;DHT22;24609;48.316;16.174;2023-08-01T02:36:01;17.80;99.90
38860;DHT22;24609;48.316;16.174;2023-08-01T02:38:26;17.80;99.90
38860;DHT22;24609;48.316;16.174;2023-08-01T02:40:52;17.80;99.90
38860;DHT22;24609;48.316;16.174;2023-08-01T02:43:17;17.90;99.90
38860;DHT22;24609;48.316;16.174;2023-08-01T02:45:43;17.80;99.90
38860;DHT22;24609;48.316;16.174;2023-08-01T02:48:09;17.80;99.90
38860;DHT22;24609;48.316;16.174;2023-08-01T02:50:35;17.80;99.90
38860;DHT22;24609;48.316;16.174;2023-08-01T02:53:00;17.90;99.90
38860;DHT22;24609;48.316;16.174;2023-08-01T02:55:26;17.90;99.90
38860;DHT22;24609;48.316;16.174;2023-08-01T02:57:51;17.90;99.90
38860;DHT22;24609;48.316;16.174;2023-08-01T03:00:17;17.80;99.90
38860;DHT22;24609;48.316;16.174;2023-08-01T03:02:43;17.70;99.90
38860;DHT22;24609;48.316;16.174;2023-08-01T03:05:09;17.40;99.90
38860;DHT22;24609;48.316;16.174;2023-08-01T03:07:35;17.20;99.90
38860;DHT22;24609;48.316;16.174;2023-08-01T03:10:01;17.20;99.90
38860;DHT22;24609;48.316;16.174;2023-08-01T03:12:27;17.30;99.90
38860;DHT22;24609;48.316;16.174;2023-08-01T03:14:53;17.30;99.90
38860;DHT22;24609;48.316;16.174;2023-08-01T03:17:19;17.30;99.90
38860;DHT22;24609;48.316;16.174;2023-08-01T03:19:44;17.30;99.90
38860;DHT22;24609;48.316;16.174;2023-08-01T03:22:10;17.40;99.90
38860;DHT22;24609;48.316;16.174;2023-08-01T03:24:36;17.50;99.90
38860;DHT22;24609;48.316;16.174;2023-08-01T03:27:02;17.60;99.90
38860;DHT22;24609;48.316;16.174;2023-08-01T03:29:28;17.70;99.90
38860;DHT22;24609;48.316;16.174;2023-08-01T03:31:54;17.70;99.90
38860;DHT22;24609;48.316;16.174;2023-08-01T03:34:20;17.70;99.90
38860;DHT22;24609;48.316;16.174;2023-08-01T03:36:45;17.70;99.90
38860;DHT22;24609;48.316;16.174;2023-08-01T03:39:11;17.70;99.90
38860;DHT22;24609;48.316;16.174;2023-08-01T03:41:37;17.60;99.90
38860;DHT22;24609;48.316;16.174;2023-08-01T03:44:03;17.70;99.90
38860;DHT22;24609;48.316;16.174;2023-08-01T03:46:29;17.70;99.90
38860;DHT22;24609;48.316;16.174;2023-08-01T03:48:55;17.80;99.90
38860;DHT22;24609;48.316;16.174;2023-08-01T03:51:21;17.80;99.90
38860;DHT22;24609;48.316;16.174;2023-08-01T03:53:47;17.90;99.90
38860;DHT22;24609;48.316;16.174;2023-08-01T03:56:13;17.90;99.90
38860;DHT22;24609;48.316;16.174;2023-08-01T03:58:39;17.90;99.90
38860;DHT22;24609;48.316;16.174;2023-08-01T04:01:05;18.00;99.90
38860;DHT22;24609;48.316;16.174;2023-08-01T04:03:32;17.90;99.90
38860;DHT22;24609;48.316;16.174;2023-08-01T04:05:58;17.90;99.90
38860;DHT22;24609;48.316;16.174;2023-08-01T04:08:23;17.80;99.90
38860;DHT22;24609;48.316;16.174;2023-08-01T04:10:49;17.80;99.90
38860;DHT22;24609;48.316;16.174;2023-08-01T04:13:18;17.90;99.90
38860;DHT22;24609;48.316;16.174;2023-08-01T04:15:43;18.00;99.90
38860;DHT22;24609;48.316;16.174;2023-08-01T04:18:09;18.10;99.90
38860;DHT22;24609;48.316;16.174;2023-08-01T04:20:35;18.10;99.90
38860;DHT22;24609;48.316;16.174;2023-08-01T04:23:00;18.10;99.90
38860;DHT22;24609;48.316;16.174;2023-08-01T04:25:27;18.20;99.90
38860;DHT22;24609;48.316;16.174;2023-08-01T04:27:53;18.30;99.90
38860;DHT22;24609;48.316;16.174;2023-08-01T04:30:19;18.30;99.90
38860;DHT22;24609;48.316;16.174;2023-08-01T04:32:44;18.40;99.90
38860;DHT22;24609;48.316;16.174;2023-08-01T04:35:10;18.30;99.90
38860;DHT22;24609;48.316;16.174;2023-08-01T04:37:36;18.30;99.90
38860;DHT22;24609;48.316;16.174;2023-08-01T04:40:02;18.30;99.90
38860;DHT22;24609;48.316;16.174;2023-08-01T04:42:28;18.20;99.90
38860;DHT22;24609;48.316;16.174;2023-08-01T04:44:54;18.30;99.90
38860;DHT22;24609;48.316;16.174;2023-08-01T04:47:20;18.50;99.90
38860;DHT22;24609;48.316;16.174;2023-08-01T04:49:46;18.60;99.90
38860;DHT22;24609;48.316;16.174;2023-08-01T04:52:12;18.70;99.90
38860;DHT22;24609;48.316;16.174;2023-08-01T04:54:38;18.90;99.90
38860;DHT22;24609;48.316;16.174;2023-08-01T04:57:04;19.00;99.90
38860;DHT22;24609;48.316;16.174;2023-08-01T04:59:30;19.10;99.90
38860;DHT22;24609;48.316;16.174;2023-08-01T05:01:55;19.10;99.90
38860;DHT22;24609;48.316;16.174;2023-08-01T05:04:21;19.10;99.90
38860;DHT22;24609;48.316;16.174;2023-08-01T05:06:47;19.20;99.90
38860;DHT22;24609;48.316;16.174;2023-08-01T05:09:12;19.30;99.90
38860;DHT22;24609;48.316;16.174;2023-08-01T05:11:38;19.40;99.90
38860;DHT22;24609;48.316;16.174;2023-08-01T05:14:04;19.50;99.90
38860;DHT22;24609;48.316;16.174;2023-08-01T05:16:29;19.70;99.90
38860;DHT22;24609;48.316;16.174;2023-08-01T05:18:55;19.70;99.90
38860;DHT22;24609;48.316;16.174;2023-08-01T05:21:20;19.50;99.90
38860;DHT22;24609;48.316;16.174;2023-08-01T05:23:46;19.50;99.90
38860;DHT22;24609;48.316;16.174;2023-08-01T05:26:12;19.40;99.90
38860;DHT22;24609;48.316;16.174;2023-08-01T05:28:38;19.40;99.90
38860;DHT22;24609;48.316;16.174;2023-08-01T05:31:03;19.50;99.90
38860;DHT22;24609;48.316;16.174;2023-08-01T05:33:29;19.60;99.90
38860;DHT22;24609;48.316;16.174;2023-08-01T05:35:55;19.80;99.90
38860;DHT22;24609;48.316;16.174;2023-08-01T05:38:20;19.90;99.90
38860;DHT22;24609;48.316;16.174;2023-08-01T05:40:46;20.10;99.90
38860;DHT22;24609;48.316;16.174;2023-08-01T05:43:12;20.10;41.80
38860;DHT22;24609;48.316;16.174;2023-08-01T05:45:38;20.10;68.70
38860;DHT22;24609;48.316;16.174;2023-08-01T05:48:04;20.00;99.90
38860;DHT22;24609;48.316;16.174;2023-08-01T05:50:30;20.00;99.90
38860;DHT22;24609;48.316;16.174;2023-08-01T05:52:55;20.20;99.90
38860;DHT22;24609;48.316;16.174;2023-08-01T05:55:21;20.70;99.90
38860;DHT22;24609;48.316;16.174;2023-08-01T05:57:47;20.80;1.00
38860;DHT22;24609;48.316;16.174;2023-08-01T06:00:15;21.10;1.00
38860;DHT22;24609;48.316;16.174;2023-08-01T06:02:40;21.10;99.90
38860;DHT22;24609;48.316;16.174;2023-08-01T06:05:06;20.70;99.90
38860;DHT22;24609;48.316;16.174;2023-08-01T06:07:32;20.70;99.90
38860;DHT22;24609;48.316;16.174;2023-08-01T06:09:58;20.90;1.00
38860;DHT22;24609;48.316;16.174;2023-08-01T06:12:23;21.00;99.90
38860;DHT22;24609;48.316;16.174;2023-08-01T06:14:49;21.20;99.90
38860;DHT22;24609;48.316;16.174;2023-08-01T06:17:15;21.30;1.00
38860;DHT22;24609;48.316;16.174;2023-08-01T06:19:41;21.30;99.90
38860;DHT22;24609;48.316;16.174;2023-08-01T06:22:08;20.90;99.90
38860;DHT22;24609;48.316;16.174;2023-08-01T06:24:33;20.70;1.00
38860;DHT22;24609;48.316;16.174;2023-08-01T06:27:00;20.80;99.90
38860;DHT22;24609;48.316;16.174;2023-08-01T06:29:25;20.80;99.90
38860;DHT22;24609;48.316;16.174;2023-08-01T06:31:51;20.70;99.90
38860;DHT22;24609;48.316;16.174;2023-08-01T06:34:17;20.50;99.90
38860;DHT22;24609;48.316;16.174;2023-08-01T06:36:43;20.80;1.00
38860;DHT22;24609;48.316;16.174;2023-08-01T06:39:08;20.90;99.90
38860;DHT22;24609;48.316;16.174;2023-08-01T06:41:34;20.80;99.90
38860;DHT22;24609;48.316;16.174;2023-08-01T06:44:00;20.80;99.90
38860;DHT22;24609;48.316;16.174;2023-08-01T06:46:25;20.90;1.00
38860;DHT22;24609;48.316;16.174;2023-08-01T06:48:51;21.00;77.70
38860;DHT22;24609;48.316;16.174;2023-08-01T06:51:17;21.20;39.20
38860;DHT22;24609;48.316;16.174;2023-08-01T06:53:42;21.50;1.00
38860;DHT22;24609;48.316;16.174;2023-08-01T06:56:08;21.50;1.00
38860;DHT22;24609;48.316;16.174;2023-08-01T06:58:34;21.20;99.90
38860;DHT22;24609;48.316;16.174;2023-08-01T07:00:59;21.00;99.90
38860;DHT22;24609;48.316;16.174;2023-08-01T07:03:25;21.00;7.10
38860;DHT22;24609;48.316;16.174;2023-08-01T07:05:51;21.10;99.90
38860;DHT22;24609;48.316;16.174;2023-08-01T07:08:16;21.00;99.90
38860;DHT22;24609;48.316;16.174;2023-08-01T07:10:42;21.00;99.90
38860;DHT22;24609;48.316;16.174;2023-08-01T07:13:08;21.10;99.90
38860;DHT22;24609;48.316;16.174;2023-08-01T07:15:33;21.00;99.90
38860;DHT22;24609;48.316;16.174;2023-08-01T07:17:59;20.70;99.90
38860;DHT22;24609;48.316;16.174;2023-08-01T07:20:25;20.70;1.00
38860;DHT22;24609;48.316;16.174;2023-08-01T07:22:51;20.90;99.90
38860;DHT22;24609;48.316;16.174;2023-08-01T07:25:16;21.20;99.90
38860;DHT22;24609;48.316;16.174;2023-08-01T07:27:45;21.40;99.90
38860;DHT22;24609;48.316;16.174;2023-08-01T07:30:11;21.40;55.90
38860;DHT22;24609;48.316;16.174;2023-08-01T07:32:37;21.30;99.90
38860;DHT22;24609;48.316;16.174;2023-08-01T07:35:05;21.20;99.90
38860;DHT22;24609;48.316;16.174;2023-08-01T07:37:32;21.10;99.90
38860;DHT22;24609;48.316;16.174;2023-08-01T07:39:58;20.90;99.90
38860;DHT22;24609;48.316;16.174;2023-08-01T07:42:24;20.70;99.90
38860;DHT22;24609;48.316;16.174;2023-08-01T07:44:49;20.60;1.00
38860;DHT22;24609;48.316;16.174;2023-08-01T07:47:17;20.60;1.00
38860;DHT22;24609;48.316;16.174;2023-08-01T07:49:43;20.70;1.00
38860;DHT22;24609;48.316;16.174;2023-08-01T07:52:09;20.90;1.00
38860;DHT22;24609;48.316;16.174;2023-08-01T07:54:35;21.00;1.00
38860;DHT22;24609;48.316;16.174;2023-08-01T07:57:01;21.10;1.00
38860;DHT22;24609;48.316;16.174;2023-08-01T07:59:26;21.00;1.00
38860;DHT22;24609;48.316;16.174;2023-08-01T08:01:52;21.00;1.00
38860;DHT22;24609;48.316;16.174;2023-08-01T08:04:18;20.80;99.90
38860;DHT22;24609;48.316;16.174;2023-08-01T08:06:44;20.50;1.00
38860;DHT22;24609;48.316;16.174;2023-08-01T08:09:10;20.60;1.00
38860;DHT22;24609;48.316;16.174;2023-08-01T08:11:35;20.70;99.90
38860;DHT22;24609;48.316;16.174;2023-08-01T08:14:01;20.60;99.90
38860;DHT22;24609;48.316;16.174;2023-08-01T08:16:27;20.80;99.90
38860;DHT22;24609;48.316;16.174;2023-08-01T08:18:53;21.10;99.90
38860;DHT22;24609;48.316;16.174;2023-08-01T08:21:18;21.50;1.00
38860;DHT22;24609;48.316;16.174;2023-08-01T08:23:44;22.00;99.90
38860;DHT22;24609;48.316;16.174;2023-08-01T08:26:10;22.10;1.00
38860;DHT22;24609;48.316;16.174;2023-08-01T08:28:36;22.10;99.90
38860;DHT22;24609;48.316;16.174;2023-08-01T08:31:02;22.20;99.90
38860;DHT22;24609;48.316;16.174;2023-08-01T08:33:29;22.50;1.00
38860;DHT22;24609;48.316;16.174;2023-08-01T08:35:54;22.70;99.90
38860;DHT22;24609;48.316;16.174;2023-08-01T08:38:20;22.90;99.90
38860;DHT22;24609;48.316;16.174;2023-08-01T08:41:10;22.50;99.90
38860;DHT22;24609;48.316;16.174;2023-08-01T08:43:36;22.00;99.90
38860;DHT22;24609;48.316;16.174;2023-08-01T08:46:03;21.90;99.90
38860;DHT22;24609;48.316;16.174;2023-08-01T08:48:30;21.70;99.90
38860;DHT22;24609;48.316;16.174;2023-08-01T08:51:00;21.70;99.90
38860;DHT22;24609;48.316;16.174;2023-08-01T08:53:26;21.60;99.90
38860;DHT22;24609;48.316;16.174;2023-08-01T08:55:52;21.50;99.90
38860;DHT22;24609;48.316;16.174;2023-08-01T08:58:18;21.50;99.90
38860;DHT22;24609;48.316;16.174;2023-08-01T09:00:44;21.50;99.90
38860;DHT22;24609;48.316;16.174;2023-08-01T09:03:10;21.40;99.90
38860;DHT22;24609;48.316;16.174;2023-08-01T09:05:50;21.40;99.90
38860;DHT22;24609;48.316;16.174;2023-08-01T09:08:18;21.30;99.90
38860;DHT22;24609;48.316;16.174;2023-08-01T09:10:45;21.20;99.90
38860;DHT22;24609;48.316;16.174;2023-08-01T09:13:11;21.20;99.90
38860;DHT22;24609;48.316;16.174;2023-08-01T09:15:37;21.20;99.90
38860;DHT22;24609;48.316;16.174;2023-08-01T09:18:06;21.10;99.90
38860;DHT22;24609;48.316;16.174;2023-08-01T09:20:47;21.10;99.90
38860;DHT22;24609;48.316;16.174;2023-08-01T09:23:14;21.10;99.90
38860;DHT22;24609;48.316;16.174;2023-08-01T09:25:41;21.10;99.90
38860;DHT22;24609;48.316;16.174;2023-08-01T09:28:20;21.10;99.90
38860;DHT22;24609;48.316;16.174;2023-08-01T09:30:52;21.00;99.90
38860;DHT22;24609;48.316;16.174;2023-08-01T09:33:19;20.90;99.90
38860;DHT22;24609;48.316;16.174;2023-08-01T09:35:45;20.80;99.90
38860;DHT22;24609;48.316;16.174;2023-08-01T09:38:14;20.80;99.90
38860;DHT22;24609;48.316;16.174;2023-08-01T09:40:44;20.80;99.90
38860;DHT22;24609;48.316;16.174;2023-08-01T09:43:13;20.80;99.90
38860;DHT22;24609;48.316;16.174;2023-08-01T09:45:59;20.80;99.90
38860;DHT22;24609;48.316;16.174;2023-08-01T09:48:27;20.80;99.90
38860;DHT22;24609;48.316;16.174;2023-08-01T09:51:10;20.90;99.90
38860;DHT22;24609;48.316;16.174;2023-08-01T09:53:56;20.90;99.90
38860;DHT22;24609;48.316;16.174;2023-08-01T09:56:28;20.80;99.90
38860;DHT22;24609;48.316;16.174;2023-08-01T09:58:55;20.80;99.90
38860;DHT22;24609;48.316;16.174;2023-08-01T10:01:23;20.60;99.90
38860;DHT22;24609;48.316;16.174;2023-08-01T10:03:53;20.60;99.90
38860;DHT22;24609;48.316;16.174;2023-08-01T10:06:19;20.50;99.90
38860;DHT22;24609;48.316;16.174;2023-08-01T10:08:46;20.50;99.90
38860;DHT22;24609;48.316;16.174;2023-08-01T10:11:12;20.40;99.90
38860;DHT22;24609;48.316;16.174;2023-08-01T10:13:40;19.70;99.90
38860;DHT22;24609;48.316;16.174;2023-08-01T10:16:06;19.30;99.90
38860;DHT22;24609;48.316;16.174;2023-08-01T10:18:33;19.00;99.90
38860;DHT22;24609;48.316;16.174;2023-08-01T10:20:59;18.90;99.90
38860;DHT22;24609;48.316;16.174;2023-08-01T10:23:25;18.80;99.90
38860;DHT22;24609;48.316;16.174;2023-08-01T10:25:51;18.70;99.90
38860;DHT22;24609;48.316;16.174;2023-08-01T10:28:17;18.90;99.90
38860;DHT22;24609;48.316;16.174;2023-08-01T10:30:43;18.80;99.90
38860;DHT22;24609;48.316;16.174;2023-08-01T10:33:08;18.70;99.90
38860;DHT22;24609;48.316;16.174;2023-08-01T10:35:38;18.60;99.90
38860;DHT22;24609;48.316;16.174;2023-08-01T10:38:11;18.60;99.90
38860;DHT22;24609;48.316;16.174;2023-08-01T10:40:41;18.70;99.90
38860;DHT22;24609;48.316;16.174;2023-08-01T10:43:20;18.80;99.90
38860;DHT22;24609;48.316;16.174;2023-08-01T10:45:46;18.80;99.90
38860;DHT22;24609;48.316;16.174;2023-08-01T10:48:12;18.90;99.90
38860;DHT22;24609;48.316;16.174;2023-08-01T10:50:39;18.70;99.90
38860;DHT22;24609;48.316;16.174;2023-08-01T10:53:05;18.60;99.90
38860;DHT22;24609;48.316;16.174;2023-08-01T10:55:41;18.70;99.90
38860;DHT22;24609;48.316;16.174;2023-08-01T10:58:07;18.70;99.90
38860;DHT22;24609;48.316;16.174;2023-08-01T11:00:33;18.70;99.90
38860;DHT22;24609;48.316;16.174;2023-08-01T11:02:58;18.70;99.90
38860;DHT22;24609;48.316;16.174;2023-08-01T11:05:24;18.70;99.90
38860;DHT22;24609;48.316;16.174;2023-08-01T11:08:09;18.50;99.90
38860;DHT22;24609;48.316;16.174;2023-08-01T11:10:35;18.50;99.90
38860;DHT22;24609;48.316;16.174;2023-08-01T11:13:00;18.30;99.90
38860;DHT22;24609;48.316;16.174;2023-08-01T11:15:26;18.40;99.90
38860;DHT22;24609;48.316;16.174;2023-08-01T11:17:52;18.40;99.90
38860;DHT22;24609;48.316;16.174;2023-08-01T11:20:19;18.40;99.90
38860;DHT22;24609;48.316;16.174;2023-08-01T11:22:55;18.40;99.90
38860;DHT22;24609;48.316;16.174;2023-08-01T11:25:35;18.50;99.90
38860;DHT22;24609;48.316;16.174;2023-08-01T11:28:03;18.60;99.90
38860;DHT22;24609;48.316;16.174;2023-08-01T11:30:30;18.60;99.90
38860;DHT22;24609;48.316;16.174;2023-08-01T11:32:55;18.60;99.90
38860;DHT22;24609;48.316;16.174;2023-08-01T11:35:21;18.70;99.90
38860;DHT22;24609;48.316;16.174;2023-08-01T11:37:46;18.80;99.90
38860;DHT22;24609;48.316;16.174;2023-08-01T11:40:12;19.00;99.90
38860;DHT22;24609;48.316;16.174;2023-08-01T11:42:38;19.10;99.90
38860;DHT22;24609;48.316;16.174;2023-08-01T11:45:10;19.20;99.90
38860;DHT22;24609;48.316;16.174;2023-08-01T11:47:36;19.30;99.90
38860;DHT22;24609;48.316;16.174;2023-08-01T11:50:01;19.30;99.90
38860;DHT22;24609;48.316;16.174;2023-08-01T11:52:27;19.20;99.90
38860;DHT22;24609;48.316;16.174;2023-08-01T11:54:53;18.90;99.90
38860;DHT22;24609;48.316;16.174;2023-08-01T11:57:22;18.50;99.90
38860;DHT22;24609;48.316;16.174;2023-08-01T11:59:48;18.40;99.90
38860;DHT22;24609;48.316;16.174;2023-08-01T12:02:23;18.50;99.90
38860;DHT22;24609;48.316;16.174;2023-08-01T12:04:49;18.70;99.90
38860;DHT22;24609;48.316;16.174;2023-08-01T12:07:15;18.80;99.90
38860;DHT22;24609;48.316;16.174;2023-08-01T12:09:41;18.80;99.90
38860;DHT22;24609;48.316;16.174;2023-08-01T12:12:08;18.80;99.90
38860;DHT22;24609;48.316;16.174;2023-08-01T12:14:34;19.00;99.90
38860;DHT22;24609;48.316;16.174;2023-08-01T12:17:04;19.20;99.90
38860;DHT22;24609;48.316;16.174;2023-08-01T12:19:30;19.50;99.90
38860;DHT22;24609;48.316;16.174;2023-08-01T12:21:55;19.30;99.90
38860;DHT22;24609;48.316;16.174;2023-08-01T12:24:21;19.50;99.90
38860;DHT22;24609;48.316;16.174;2023-08-01T12:26:46;19.30;99.90
38860;DHT22;24609;48.316;16.174;2023-08-01T12:29:12;19.20;99.90
38860;DHT22;24609;48.316;16.174;2023-08-01T12:31:37;19.10;99.90
38860;DHT22;24609;48.316;16.174;2023-08-01T12:34:03;18.70;99.90
38860;DHT22;24609;48.316;16.174;2023-08-01T12:36:28;18.40;99.90
38860;DHT22;24609;48.316;16.174;2023-08-01T12:38:54;18.30;99.90
38860;DHT22;24609;48.316;16.174;2023-08-01T12:41:20;18.20;99.90
38860;DHT22;24609;48.316;16.174;2023-08-01T12:43:45;18.10;99.90
38860;DHT22;24609;48.316;16.174;2023-08-01T12:46:11;18.10;99.90
38860;DHT22;24609;48.316;16.174;2023-08-01T12:48:36;18.20;99.90
38860;DHT22;24609;48.316;16.174;2023-08-01T12:51:02;18.20;99.90
38860;DHT22;24609;48.316;16.174;2023-08-01T12:53:27;18.20;99.90
38860;DHT22;24609;48.316;16.174;2023-08-01T12:55:53;18.10;99.90
38860;DHT22;24609;48.316;16.174;2023-08-01T12:58:18;18.00;99.90
38860;DHT22;24609;48.316;16.174;2023-08-01T13:00:44;18.00;99.90
38860;DHT22;24609;48.316;16.174;2023-08-01T13:03:10;18.00;99.90
38860;DHT22;24609;48.316;16.174;2023-08-01T13:05:36;17.90;99.90
38860;DHT22;24609;48.316;16.174;2023-08-01T13:08:02;17.90;99.90
38860;DHT22;24609;48.316;16.174;2023-08-01T13:10:32;17.90;99.90
38860;DHT22;24609;48.316;16.174;2023-08-01T13:12:58;17.90;99.90
38860;DHT22;24609;48.316;16.174;2023-08-01T13:15:23;17.90;99.90
38860;DHT22;24609;48.316;16.174;2023-08-01T13:17:49;18.00;99.90
38860;DHT22;24609;48.316;16.174;2023-08-01T13:20:15;18.00;99.90
38860;DHT22;24609;48.316;16.174;2023-08-01T13:22:41;18.00;99.90
38860;DHT22;24609;48.316;16.174;2023-08-01T13:25:06;17.90;99.90
38860;DHT22;24609;48.316;16.174;2023-08-01T13:27:33;18.00;99.90
38860;DHT22;24609;48.316;16.174;2023-08-01T13:29:59;18.10;99.90
38860;DHT22;24609;48.316;16.174;2023-08-01T13:32:24;18.10;99.90
38860;DHT22;24609;48.316;16.174;2023-08-01T13:34:50;18.20;99.90
38860;DHT22;24609;48.316;16.174;2023-08-01T13:37:15;18.10;99.90
38860;DHT22;24609;48.316;16.174;2023-08-01T13:39:41;18.00;99.90
38860;DHT22;24609;48.316;16.174;2023-08-01T13:42:07;17.80;99.90
38860;DHT22;24609;48.316;16.174;2023-08-01T13:44:32;17.70;99.90
38860;DHT22;24609;48.316;16.174;2023-08-01T13:46:58;17.60;99.90
38860;DHT22;24609;48.316;16.174;2023-08-01T13:49:24;17.60;99.90
38860;DHT22;24609;48.316;16.174;2023-08-01T13:51:49;17.60;99.90
38860;DHT22;24609;48.316;16.174;2023-08-01T13:54:15;17.70;99.90
38860;DHT22;24609;48.316;16.174;2023-08-01T13:56:40;17.70;99.90
38860;DHT22;24609;48.316;16.174;2023-08-01T13:59:06;17.50;99.90
38860;DHT22;24609;48.316;16.174;2023-08-01T14:01:31;17.50;99.90
38860;DHT22;24609;48.316;16.174;2023-08-01T14:03:57;17.50;99.90
38860;DHT22;24609;48.316;16.174;2023-08-01T14:06:23;17.40;99.90
38860;DHT22;24609;48.316;16.174;2023-08-01T14:08:48;17.30;99.90
38860;DHT22;24609;48.316;16.174;2023-08-01T14:11:14;17.30;99.90
38860;DHT22;24609;48.316;16.174;2023-08-01T14:13:39;17.30;99.90
38860;DHT22;24609;48.316;16.174;2023-08-01T14:16:05;17.30;99.90
38860;DHT22;24609;48.316;16.174;2023-08-01T14:18:30;17.30;99.90
38860;DHT22;24609;48.316;16.174;2023-08-01T14:20:56;17.30;99.90
38860;DHT22;24609;48.316;16.174;2023-08-01T14:23:22;17.40;99.90
38860;DHT22;24609;48.316;16.174;2023-08-01T14:25:48;17.30;99.90
38860;DHT22;24609;48.316;16.174;2023-08-01T14:28:13;17.20;99.90
38860;DHT22;24609;48.316;16.174;2023-08-01T14:30:39;17.20;99.90
38860;DHT22;24609;48.316;16.174;2023-08-01T14:33:05;17.20;99.90
38860;DHT22;24609;48.316;16.174;2023-08-01T14:35:32;17.30;99.90
38860;DHT22;24609;48.316;16.174;2023-08-01T14:37:58;17.20;99.90
38860;DHT22;24609;48.316;16.174;2023-08-01T14:40:24;17.20;99.90
38860;DHT22;24609;48.316;16.174;2023-08-01T14:42:50;17.10;99.90
38860;DHT22;24609;48.316;16.174;2023-08-01T14:45:16;17.10;99.90
38860;DHT22;24609;48.316;16.174;2023-08-01T14:47:41;17.00;99.90
38860;DHT22;24609;48.316;16.174;2023-08-01T14:50:08;17.00;99.90
38860;DHT22;24609;48.316;16.174;2023-08-01T14:52:34;17.00;99.90
38860;DHT22;24609;48.316;16.174;2023-08-01T14:55:00;16.90;99.90
38860;DHT22;24609;48.316;16.174;2023-08-01T14:57:25;16.90;99.90
38860;DHT22;24609;48.316;16.174;2023-08-01T14:59:51;17.00;99.90
38860;DHT22;24609;48.316;16.174;2023-08-01T15:02:17;16.90;99.90
38860;DHT22;24609;48.316;16.174;2023-08-01T15:04:42;16.90;99.90
38860;DHT22;24609;48.316;16.174;2023-08-01T15:07:08;17.10;99.90
38860;DHT22;24609;48.316;16.174;2023-08-01T15:09:33;17.20;99.90
38860;DHT22;24609;48.316;16.174;2023-08-01T15:11:59;17.20;99.90